createdAt,value
2022-12-01T00:00:58.722Z,109.32
2022-12-01T00:06:01.962Z,115.32
2022-12-01T00:11:12.108Z,108.43
2022-12-01T00:16:16.329Z,108.72
2022-12-01T00:21:20.315Z,112.07
2022-12-01T00:26:22.468Z,110.97
2022-12-01T00:31:24.751Z,113.25
2022-12-01T00:36:26.252Z,110.05
2022-12-01T00:41:27.755Z,104.45
2022-12-01T00:46:29.477Z,112.38
2022-12-01T00:51:31.125Z,105.05
2022-12-01T00:56:32.626Z,120.10
2022-12-01T01:01:35.136Z,115.38
2022-12-01T01:06:37.822Z,115.80
2022-12-01T01:11:39.667Z,107.35
2022-12-01T01:16:41.259Z,110.95
2022-12-01T01:21:42.785Z,108.10
2022-12-01T01:26:44.468Z,111.43
2022-12-01T01:31:45.939Z,110.05
2022-12-01T01:36:47.410Z,118.30
2022-12-01T01:41:48.963Z,113.13
2022-12-01T01:46:50.796Z,105.88
2022-12-01T01:51:53.845Z,110.32
2022-12-01T01:56:59.939Z,110.72
2022-12-01T02:02:08.488Z,105.20
2022-12-01T02:07:12.752Z,111.40
2022-12-01T02:12:39.666Z,105.10
2022-12-01T02:17:50.190Z,110.78
2022-12-01T02:23:10.453Z,114.47
2022-12-01T02:28:51.074Z,110.30
2022-12-01T02:34:18.766Z,108.72
2022-12-01T02:39:35.405Z,115.67
2022-12-01T02:44:41.792Z,125.50
2022-12-01T02:49:49.523Z,117.45
2022-12-01T02:54:53.049Z,116.35
2022-12-01T02:59:55.989Z,120.43
2022-12-01T03:05:10.023Z,112.50
2022-12-01T03:10:24.171Z,118.25
2022-12-01T03:15:48.127Z,118.72
2022-12-01T03:21:05.450Z,116.00
2022-12-01T03:26:11.659Z,114.73
2022-12-01T03:31:18.323Z,121.75
2022-12-01T03:36:27.035Z,116.32
2022-12-01T03:41:38.183Z,120.82
2022-12-01T03:46:50.220Z,111.88
2022-12-01T03:52:29.028Z,120.10
2022-12-01T03:57:36.130Z,110.00
2022-12-01T04:02:38.138Z,121.30
2022-12-01T04:07:40.123Z,114.05
2022-12-01T04:12:41.649Z,118.28
2022-12-01T04:17:44.473Z,119.68
2022-12-01T04:22:46.071Z,123.13
2022-12-01T04:27:47.670Z,112.82
2022-12-01T04:32:49.136Z,119.45
2022-12-01T04:37:50.597Z,134.30
2022-12-01T04:42:52.092Z,131.07
2022-12-01T04:47:53.545Z,124.93
2022-12-01T04:52:55.111Z,128.85
2022-12-01T04:57:56.572Z,115.80
2022-12-01T05:02:59.180Z,123.43
2022-12-01T05:08:00.826Z,125.15
2022-12-01T05:13:03.522Z,125.38
2022-12-01T05:18:06.053Z,122.53
2022-12-01T05:23:10.809Z,136.25
2022-12-01T05:28:15.193Z,134.30
2022-12-01T05:33:16.996Z,134.43
2022-12-01T05:38:19.182Z,127.45
2022-12-01T05:43:28.369Z,138.43
2022-12-01T05:48:31.173Z,126.93
2022-12-01T05:53:32.792Z,123.35
2022-12-01T05:58:35.154Z,129.35
2022-12-01T06:03:36.727Z,125.57
2022-12-01T06:08:38.277Z,129.38
2022-12-01T06:13:39.761Z,118.65
2022-12-01T06:18:41.276Z,120.22
2022-12-01T06:23:42.838Z,121.80
2022-12-01T06:28:44.297Z,123.93
2022-12-01T06:33:45.806Z,119.57
2022-12-01T06:38:47.331Z,121.78
2022-12-01T06:43:48.822Z,115.93
2022-12-01T06:48:50.480Z,124.63
2022-12-01T06:53:55.171Z,116.95
2022-12-01T06:58:57.323Z,115.95
2022-12-01T07:03:59.202Z,122.75
2022-12-01T07:09:00.709Z,121.32
2022-12-01T07:14:02.583Z,121.85
2022-12-01T07:19:04.105Z,124.78
2022-12-01T07:24:05.937Z,127.60
2022-12-01T07:29:08.740Z,133.85
2022-12-01T07:34:13.183Z,120.28
2022-12-01T07:39:14.702Z,127.13
2022-12-01T07:44:16.234Z,180.13
2022-12-01T07:49:17.833Z,150.13
2022-12-01T07:54:21.216Z,149.25
2022-12-01T07:59:22.777Z,139.88
2022-12-01T08:04:24.352Z,136.65
2022-12-01T08:09:25.932Z,132.07
2022-12-01T08:14:27.405Z,121.80
2022-12-01T08:19:29.342Z,124.38
2022-12-01T08:24:30.844Z,128.23
2022-12-01T08:29:32.362Z,124.47
2022-12-01T08:34:38.288Z,155.10
2022-12-01T08:39:39.737Z,136.13
2022-12-01T08:44:41.238Z,143.77
2022-12-01T08:49:42.771Z,138.45
2022-12-01T08:54:44.200Z,126.13
2022-12-01T08:59:45.697Z,117.50
2022-12-01T09:04:47.151Z,117.50
2022-12-01T09:09:48.971Z,110.80
2022-12-01T09:14:50.752Z,103.35
2022-12-01T09:19:52.406Z,104.70
2022-12-01T09:24:53.981Z,102.70
2022-12-01T09:29:55.440Z,104.13
2022-12-01T09:34:56.972Z,101.40
2022-12-01T09:39:58.429Z,105.40
2022-12-01T09:45:02.722Z,98.95
2022-12-01T09:50:23.949Z,91.60
2022-12-01T09:55:26.464Z,90.15
2022-12-01T10:00:33.165Z,87.75
2022-12-01T10:06:18.064Z,81.93
2022-12-01T10:11:24.557Z,67.38
2022-12-01T10:16:40.711Z,60.08
2022-12-01T10:22:13.137Z,59.60
2022-12-01T10:27:51.470Z,56.92
2022-12-01T10:32:58.873Z,52.00
2022-12-01T10:38:04.037Z,51.90
2022-12-01T10:43:05.585Z,45.90
2022-12-01T10:48:21.778Z,40.97
2022-12-01T10:53:23.250Z,38.65
2022-12-01T10:58:25.868Z,38.72
2022-12-01T11:03:33.500Z,33.92
2022-12-01T11:08:50.725Z,41.22
2022-12-01T11:13:53.014Z,41.45
2022-12-01T11:19:21.773Z,31.00
2022-12-01T11:24:55.482Z,41.45
2022-12-01T11:30:20.190Z,29.60
2022-12-01T11:35:25.441Z,33.45
2022-12-01T11:40:30.444Z,28.52
2022-12-01T11:45:40.032Z,34.13
2022-12-01T11:50:43.552Z,33.15
2022-12-01T11:55:45.050Z,31.02
2022-12-01T12:00:53.747Z,32.45
2022-12-01T12:06:39.845Z,35.67
2022-12-01T12:12:15.678Z,34.70
2022-12-01T12:17:26.480Z,32.45
2022-12-01T12:22:37.911Z,36.05
2022-12-01T12:28:08.584Z,33.13
2022-12-01T12:33:18.142Z,38.80
2022-12-01T12:38:28.791Z,40.67
2022-12-01T12:43:44.669Z,47.45
2022-12-01T12:49:19.753Z,44.05
2022-12-01T12:54:30.499Z,37.88
2022-12-01T12:59:31.914Z,38.08
2022-12-01T13:04:39.505Z,43.08
2022-12-01T13:09:46.101Z,42.40
2022-12-01T13:15:00.841Z,44.35
2022-12-01T13:20:04.358Z,44.90
2022-12-01T13:25:06.342Z,47.92
2022-12-01T13:30:21.271Z,40.80
2022-12-01T13:35:29.980Z,44.95
2022-12-01T13:40:31.530Z,39.33
2022-12-01T13:45:36.609Z,39.35
2022-12-01T13:50:53.648Z,40.13
2022-12-01T13:56:04.155Z,41.90
2022-12-01T14:01:25.935Z,38.65
2022-12-01T14:06:48.912Z,35.00
2022-12-01T14:12:16.555Z,33.10
2022-12-01T14:17:28.518Z,31.17
2022-12-01T14:22:35.120Z,45.95
2022-12-01T14:27:43.700Z,28.70
2022-12-01T14:32:45.163Z,32.10
2022-12-01T14:37:49.679Z,30.05
2022-12-01T14:43:14.015Z,27.65
2022-12-01T14:48:34.643Z,25.15
2022-12-01T14:53:40.756Z,23.75
2022-12-01T14:58:59.705Z,26.27
2022-12-01T15:04:03.673Z,24.83
2022-12-01T15:09:32.953Z,23.80
2022-12-01T15:14:47.374Z,25.20
2022-12-01T15:19:49.115Z,27.15
2022-12-01T15:24:51.607Z,24.05
2022-12-01T15:29:54.558Z,29.20
2022-12-01T15:34:56.854Z,26.80
2022-12-01T15:40:54.012Z,24.92
2022-12-01T15:45:25.409Z,24.85
2022-12-01T15:50:26.964Z,21.70
2022-12-01T15:55:31.923Z,22.98
2022-12-01T16:00:33.727Z,28.15
2022-12-01T16:05:36.276Z,27.70
2022-12-01T16:10:37.733Z,24.38
2022-12-01T16:15:44.943Z,22.88
2022-12-01T16:25:48.519Z,24.35
2022-12-01T16:30:51.925Z,26.40
2022-12-01T16:35:54.581Z,27.23
2022-12-01T16:40:59.062Z,24.48
2022-12-01T16:46:03.911Z,24.65
2022-12-01T16:51:07.747Z,25.58
2022-12-01T16:56:12.875Z,26.98
2022-12-01T17:01:14.462Z,100.78
2022-12-01T17:06:20.371Z,49.05
2022-12-01T17:11:21.885Z,26.98
2022-12-01T17:16:23.470Z,27.30
2022-12-01T17:21:25.066Z,29.38
2022-12-01T17:26:26.500Z,32.88
2022-12-01T17:31:28.112Z,29.52
2022-12-01T17:36:31.231Z,47.05
2022-12-01T17:41:35.715Z,31.63
2022-12-01T17:46:38.501Z,33.20
2022-12-01T17:51:40.926Z,53.33
2022-12-01T17:56:42.789Z,32.50
2022-12-01T18:01:44.459Z,29.20
2022-12-01T18:06:49.316Z,32.45
2022-12-01T18:11:58.759Z,31.95
2022-12-01T18:17:00.333Z,30.17
2022-12-01T18:22:01.822Z,28.80
2022-12-01T18:27:03.332Z,31.23
2022-12-01T18:32:05.195Z,32.38
2022-12-01T18:37:06.781Z,37.38
2022-12-01T18:42:08.318Z,39.10
2022-12-01T18:47:10.219Z,45.95
2022-12-01T18:52:11.760Z,48.47
2022-12-01T18:57:14.633Z,46.50
2022-12-01T19:02:16.261Z,55.47
2022-12-01T19:07:17.736Z,60.22
2022-12-01T19:12:19.274Z,52.60
2022-12-01T19:17:20.754Z,59.67
2022-12-01T19:22:22.245Z,59.40
2022-12-01T19:27:23.793Z,60.17
2022-12-01T19:32:25.696Z,61.80
2022-12-01T19:37:27.242Z,65.75
2022-12-01T19:42:30.135Z,69.85
2022-12-01T19:47:32.996Z,69.25
2022-12-01T19:52:36.043Z,77.07
2022-12-01T19:57:37.512Z,75.53
2022-12-01T20:02:39.075Z,71.97
2022-12-01T20:07:40.552Z,73.05
2022-12-01T20:12:42.108Z,75.00
2022-12-01T20:17:43.630Z,76.22
2022-12-01T20:22:45.092Z,80.32
2022-12-01T20:27:46.543Z,78.22
2022-12-01T20:32:47.995Z,83.15
2022-12-01T20:37:49.466Z,79.38
2022-12-01T20:42:50.938Z,85.57
2022-12-01T20:47:52.801Z,86.20
2022-12-01T20:52:54.309Z,80.72
2022-12-01T20:57:55.799Z,82.75
2022-12-01T21:02:57.564Z,85.82
2022-12-01T21:08:00.900Z,82.97
2022-12-01T21:13:33.803Z,86.85
2022-12-01T21:18:51.994Z,84.68
2022-12-01T21:24:16.664Z,84.68
2022-12-01T21:29:27.389Z,87.43
2022-12-01T21:34:29.291Z,91.70
2022-12-01T21:39:30.802Z,87.47
2022-12-01T21:44:36.771Z,88.38
2022-12-01T21:49:39.651Z,80.72
2022-12-01T21:54:41.223Z,87.15
2022-12-01T21:59:42.678Z,85.60
2022-12-01T22:04:44.183Z,90.85
2022-12-01T22:09:45.833Z,84.43
2022-12-01T22:14:53.598Z,90.30
2022-12-01T22:25:01.868Z,87.63
2022-12-01T22:30:06.001Z,85.80
2022-12-01T22:35:22.058Z,81.05
2022-12-01T22:41:02.137Z,85.22
2022-12-01T22:46:22.540Z,88.28
2022-12-01T22:51:30.742Z,90.57
2022-12-01T22:56:45.343Z,90.55
2022-12-01T23:01:48.532Z,91.95
2022-12-01T23:06:58.275Z,92.03
2022-12-01T23:12:11.720Z,97.97
2022-12-01T23:17:25.710Z,99.25
2022-12-01T23:22:27.168Z,96.50
2022-12-01T23:27:28.633Z,94.78
2022-12-01T23:32:30.066Z,95.32
2022-12-01T23:37:37.824Z,101.47
2022-12-01T23:47:40.934Z,96.50
2022-12-01T23:52:42.444Z,95.85
2022-12-01T23:57:43.937Z,97.68
